createdAt,value
2022-10-18T09:44:57.870Z,55.93
2022-10-18T09:47:48.223Z,56.45
2022-10-18T09:50:30.141Z,55.48
2022-10-18T09:53:25.111Z,55.42
2022-10-18T09:56:15.739Z,53.35
2022-10-18T09:58:53.886Z,52.87
2022-10-18T10:01:32.688Z,53.12
2022-10-18T10:04:19.523Z,54.10
2022-10-18T10:45:07.981Z,51.29
2022-10-18T10:47:40.093Z,49.38
2022-10-18T10:50:13.533Z,49.00
2022-10-18T10:52:44.952Z,49.57
2022-10-18T10:55:35.355Z,50.07
2022-10-18T10:58:05.281Z,48.93
2022-10-18T11:00:46.339Z,48.57
2022-10-18T11:03:33.766Z,49.70
2022-10-18T11:06:02.272Z,49.70
2022-10-18T11:08:41.092Z,50.30
2022-10-18T11:11:28.488Z,48.44
2022-10-18T11:14:28.175Z,48.84
2022-10-18T11:17:28.584Z,48.21
2022-10-18T11:20:11.975Z,48.96
2022-10-18T11:22:58.844Z,49.28
2022-10-18T11:25:45.913Z,48.99
2022-10-18T11:28:47.919Z,48.47
2022-10-18T11:32:03.621Z,48.30
2022-10-18T11:35:03.306Z,48.20
2022-10-18T11:37:46.785Z,48.46
2022-10-18T11:41:11.043Z,47.67
2022-10-18T11:44:04.520Z,47.01
2022-10-18T11:46:47.475Z,46.91
2022-10-18T11:49:33.885Z,46.41
2022-10-18T11:52:32.917Z,47.37
2022-10-18T11:55:30.320Z,46.61
2022-10-18T11:58:22.138Z,45.88
2022-10-18T12:00:51.547Z,46.45
2022-10-18T12:24:52.624Z,46.55
2022-10-18T12:27:37.628Z,47.65
2022-10-18T12:30:26.522Z,47.79
2022-10-18T12:33:27.637Z,47.40
2022-10-18T12:36:20.844Z,46.98
2022-10-18T12:39:03.452Z,47.16
2022-10-18T12:41:34.941Z,46.59
2022-10-18T12:44:34.322Z,46.84
2022-10-18T12:47:05.424Z,47.76
2022-10-18T12:49:42.694Z,46.91
2022-10-18T12:52:37.627Z,47.07
2022-10-18T12:55:16.790Z,47.14
2022-10-18T12:57:58.902Z,46.54
2022-10-18T13:00:32.758Z,46.61
2022-10-18T13:03:37.768Z,45.76
2022-10-18T13:06:06.769Z,46.02
2022-10-18T13:08:42.135Z,46.46
2022-10-18T13:11:10.297Z,47.05
2022-10-18T13:14:18.338Z,47.05
2022-10-18T13:17:19.436Z,46.46
2022-10-18T13:20:27.411Z,47.55
2022-10-18T13:23:27.068Z,48.07
2022-10-18T13:26:15.834Z,47.14
2022-10-18T13:29:03.298Z,46.62
2022-10-18T13:32:02.235Z,46.90
2022-10-18T13:34:38.225Z,46.82
2022-10-18T13:37:11.596Z,46.52
2022-10-18T13:39:41.024Z,46.53
2022-10-18T13:42:34.028Z,45.31
2022-10-18T13:45:32.862Z,46.46
2022-10-18T13:48:31.987Z,45.91
2022-10-18T13:51:49.296Z,46.10
2022-10-18T13:55:03.447Z,45.77
2022-10-18T13:57:49.055Z,45.79
2022-10-18T14:00:49.283Z,46.24
2022-10-18T14:03:58.353Z,46.51
2022-10-18T14:06:34.291Z,45.97
2022-10-18T14:12:39.174Z,45.46
2022-10-18T14:15:19.703Z,46.61
2022-10-18T14:18:21.686Z,46.51
2022-10-18T14:21:12.908Z,47.36
2022-10-18T14:23:45.619Z,47.47
2022-10-18T14:26:19.951Z,47.56
2022-10-18T14:29:11.332Z,47.89
2022-10-18T14:31:39.099Z,48.04
2022-10-18T14:34:11.307Z,47.89
2022-10-18T14:36:43.428Z,47.90
2022-10-18T14:39:30.117Z,47.44
2022-10-18T14:41:59.544Z,48.11
2022-10-18T14:44:31.096Z,48.29
2022-10-18T14:47:25.929Z,48.81
2022-10-18T14:50:01.133Z,48.67
2022-10-18T15:01:39.810Z,49.93
2022-10-18T15:27:48.703Z,54.10
2022-10-18T15:30:32.036Z,54.67
2022-10-18T15:47:26.403Z,57.60
2022-10-18T15:50:08.718Z,57.96
2022-10-18T16:35:40.199Z,59.16
2022-10-18T17:13:42.574Z,58.96
2022-10-18T18:02:39.753Z,61.61
